sensor_id;sensor_type;location;lat;lon;timestamp;P1;durP1;ratioP1;P2;durP2;ratioP2
57826;SDS011;43656;57.746;11.780;2023-09-08T00:01:24;14.05;;;11.00;;
57826;SDS011;43656;57.746;11.780;2023-09-08T00:03:50;14.00;;;10.95;;
57826;SDS011;43656;57.746;11.780;2023-09-08T00:06:15;12.98;;;10.98;;
57826;SDS011;43656;57.746;11.780;2023-09-08T00:08:41;18.98;;;11.40;;
57826;SDS011;43656;57.746;11.780;2023-09-08T00:11:08;16.38;;;11.75;;
57826;SDS011;43656;57.746;11.780;2023-09-08T00:13:33;16.33;;;11.65;;
57826;SDS011;43656;57.746;11.780;2023-09-08T00:15:59;18.15;;;12.30;;
57826;SDS011;43656;57.746;11.780;2023-09-08T00:18:24;17.92;;;12.38;;
57826;SDS011;43656;57.746;11.780;2023-09-08T00:20:50;16.67;;;11.93;;
57826;SDS011;43656;57.746;11.780;2023-09-08T00:23:15;16.85;;;12.30;;
57826;SDS011;43656;57.746;11.780;2023-09-08T00:25:41;18.40;;;12.35;;
57826;SDS011;43656;57.746;11.780;2023-09-08T00:28:08;18.73;;;12.75;;
57826;SDS011;43656;57.746;11.780;2023-09-08T00:30:33;18.65;;;12.70;;
57826;SDS011;43656;57.746;11.780;2023-09-08T00:32:58;18.38;;;12.65;;
57826;SDS011;43656;57.746;11.780;2023-09-08T00:35:24;16.75;;;12.43;;
57826;SDS011;43656;57.746;11.780;2023-09-08T00:37:49;20.38;;;12.90;;
57826;SDS011;43656;57.746;11.780;2023-09-08T00:40:15;20.70;;;12.80;;
57826;SDS011;43656;57.746;11.780;2023-09-08T00:42:40;16.42;;;13.02;;
57826;SDS011;43656;57.746;11.780;2023-09-08T00:45:06;18.38;;;13.60;;
57826;SDS011;43656;57.746;11.780;2023-09-08T00:47:32;18.27;;;13.45;;
57826;SDS011;43656;57.746;11.780;2023-09-08T00:49:58;17.35;;;12.77;;
57826;SDS011;43656;57.746;11.780;2023-09-08T00:52:24;17.20;;;12.73;;
57826;SDS011;43656;57.746;11.780;2023-09-08T00:54:49;15.73;;;12.35;;
57826;SDS011;43656;57.746;11.780;2023-09-08T00:57:15;19.10;;;13.30;;
57826;SDS011;43656;57.746;11.780;2023-09-08T00:59:41;22.77;;;13.80;;
57826;SDS011;43656;57.746;11.780;2023-09-08T01:02:08;16.80;;;14.05;;
57826;SDS011;43656;57.746;11.780;2023-09-08T01:04:34;17.83;;;13.48;;
57826;SDS011;43656;57.746;11.780;2023-09-08T01:07:00;18.90;;;13.88;;
57826;SDS011;43656;57.746;11.780;2023-09-08T01:09:26;21.15;;;14.13;;
57826;SDS011;43656;57.746;11.780;2023-09-08T01:11:52;20.08;;;14.23;;
57826;SDS011;43656;57.746;11.780;2023-09-08T01:14:20;18.35;;;14.40;;
57826;SDS011;43656;57.746;11.780;2023-09-08T01:16:46;21.55;;;14.52;;
57826;SDS011;43656;57.746;11.780;2023-09-08T01:19:12;22.65;;;15.23;;
57826;SDS011;43656;57.746;11.780;2023-09-08T01:26:59;28.85;;;15.75;;
57826;SDS011;43656;57.746;11.780;2023-09-08T01:29:25;24.02;;;15.48;;
57826;SDS011;43656;57.746;11.780;2023-09-08T01:31:52;22.45;;;15.57;;
57826;SDS011;43656;57.746;11.780;2023-09-08T01:34:18;21.48;;;16.15;;
57826;SDS011;43656;57.746;11.780;2023-09-08T01:36:45;24.10;;;16.40;;
57826;SDS011;43656;57.746;11.780;2023-09-08T01:39:10;22.92;;;16.00;;
57826;SDS011;43656;57.746;11.780;2023-09-08T01:41:36;24.55;;;16.33;;
57826;SDS011;43656;57.746;11.780;2023-09-08T01:44:01;21.30;;;15.90;;
57826;SDS011;43656;57.746;11.780;2023-09-08T01:46:33;20.88;;;15.90;;
57826;SDS011;43656;57.746;11.780;2023-09-08T01:48:59;22.58;;;16.25;;
57826;SDS011;43656;57.746;11.780;2023-09-08T01:51:25;21.70;;;16.60;;
57826;SDS011;43656;57.746;11.780;2023-09-08T01:53:50;24.27;;;16.77;;
57826;SDS011;43656;57.746;11.780;2023-09-08T01:56:17;26.90;;;17.63;;
57826;SDS011;43656;57.746;11.780;2023-09-08T01:58:44;23.63;;;17.42;;
57826;SDS011;43656;57.746;11.780;2023-09-08T02:01:09;26.48;;;17.13;;
57826;SDS011;43656;57.746;11.780;2023-09-08T02:03:34;19.90;;;17.27;;
57826;SDS011;43656;57.746;11.780;2023-09-08T02:06:00;25.55;;;17.30;;
57826;SDS011;43656;57.746;11.780;2023-09-08T02:08:25;25.38;;;17.25;;
57826;SDS011;43656;57.746;11.780;2023-09-08T02:10:51;24.42;;;17.42;;
57826;SDS011;43656;57.746;11.780;2023-09-08T02:13:16;25.60;;;18.10;;
57826;SDS011;43656;57.746;11.780;2023-09-08T02:15:42;24.70;;;16.70;;
57826;SDS011;43656;57.746;11.780;2023-09-08T02:18:08;22.08;;;16.85;;
57826;SDS011;43656;57.746;11.780;2023-09-08T02:20:34;27.63;;;18.30;;
57826;SDS011;43656;57.746;11.780;2023-09-08T02:23:03;26.60;;;18.63;;
57826;SDS011;43656;57.746;11.780;2023-09-08T02:25:30;28.63;;;18.23;;
57826;SDS011;43656;57.746;11.780;2023-09-08T02:27:56;29.10;;;17.80;;
57826;SDS011;43656;57.746;11.780;2023-09-08T02:30:21;27.38;;;18.42;;
57826;SDS011;43656;57.746;11.780;2023-09-08T02:32:46;29.30;;;19.40;;
57826;SDS011;43656;57.746;11.780;2023-09-08T02:35:12;28.77;;;19.08;;
57826;SDS011;43656;57.746;11.780;2023-09-08T02:37:37;30.73;;;19.67;;
57826;SDS011;43656;57.746;11.780;2023-09-08T02:40:03;34.13;;;20.30;;
57826;SDS011;43656;57.746;11.780;2023-09-08T02:42:30;32.78;;;20.10;;
57826;SDS011;43656;57.746;11.780;2023-09-08T02:44:56;32.63;;;20.77;;
57826;SDS011;43656;57.746;11.780;2023-09-08T02:47:21;36.13;;;22.10;;
57826;SDS011;43656;57.746;11.780;2023-09-08T02:49:46;36.03;;;22.30;;
57826;SDS011;43656;57.746;11.780;2023-09-08T02:52:12;40.88;;;23.23;;
57826;SDS011;43656;57.746;11.780;2023-09-08T02:54:37;41.08;;;24.40;;
57826;SDS011;43656;57.746;11.780;2023-09-08T02:57:04;47.55;;;25.02;;
57826;SDS011;43656;57.746;11.780;2023-09-08T02:59:29;43.13;;;25.42;;
57826;SDS011;43656;57.746;11.780;2023-09-08T03:01:55;56.70;;;28.55;;
57826;SDS011;43656;57.746;11.780;2023-09-08T03:04:20;54.85;;;27.52;;
57826;SDS011;43656;57.746;11.780;2023-09-08T03:06:46;68.20;;;30.10;;
57826;SDS011;43656;57.746;11.780;2023-09-08T03:09:13;69.40;;;31.90;;
57826;SDS011;43656;57.746;11.780;2023-09-08T03:11:39;76.45;;;33.85;;
57826;SDS011;43656;57.746;11.780;2023-09-08T03:14:05;71.28;;;32.15;;
57826;SDS011;43656;57.746;11.780;2023-09-08T03:16:30;86.35;;;34.13;;
57826;SDS011;43656;57.746;11.780;2023-09-08T03:18:56;80.20;;;33.63;;
57826;SDS011;43656;57.746;11.780;2023-09-08T03:21:21;84.80;;;33.95;;
57826;SDS011;43656;57.746;11.780;2023-09-08T03:23:47;82.45;;;34.33;;
57826;SDS011;43656;57.746;11.780;2023-09-08T03:26:13;103.63;;;37.17;;
57826;SDS011;43656;57.746;11.780;2023-09-08T03:28:38;89.05;;;34.42;;
57826;SDS011;43656;57.746;11.780;2023-09-08T03:31:04;113.13;;;37.75;;
57826;SDS011;43656;57.746;11.780;2023-09-08T03:33:30;102.60;;;36.08;;
57826;SDS011;43656;57.746;11.780;2023-09-08T03:35:56;98.40;;;36.28;;
57826;SDS011;43656;57.746;11.780;2023-09-08T03:38:22;108.07;;;38.03;;
57826;SDS011;43656;57.746;11.780;2023-09-08T03:40:47;95.72;;;35.60;;
57826;SDS011;43656;57.746;11.780;2023-09-08T03:43:13;130.90;;;38.13;;
57826;SDS011;43656;57.746;11.780;2023-09-08T03:45:39;137.82;;;40.05;;
57826;SDS011;43656;57.746;11.780;2023-09-08T03:48:04;136.48;;;40.67;;
57826;SDS011;43656;57.746;11.780;2023-09-08T03:50:30;135.00;;;39.20;;
57826;SDS011;43656;57.746;11.780;2023-09-08T03:52:56;114.57;;;37.63;;
57826;SDS011;43656;57.746;11.780;2023-09-08T03:55:21;123.78;;;38.85;;
57826;SDS011;43656;57.746;11.780;2023-09-08T03:57:46;171.80;;;42.55;;
57826;SDS011;43656;57.746;11.780;2023-09-08T04:00:13;97.35;;;34.15;;
57826;SDS011;43656;57.746;11.780;2023-09-08T04:02:44;108.22;;;36.67;;
57826;SDS011;43656;57.746;11.780;2023-09-08T04:05:09;105.70;;;36.78;;
57826;SDS011;43656;57.746;11.780;2023-09-08T04:07:35;102.07;;;36.50;;
57826;SDS011;43656;57.746;11.780;2023-09-08T04:10:01;101.15;;;36.10;;
57826;SDS011;43656;57.746;11.780;2023-09-08T04:12:26;118.15;;;37.53;;
57826;SDS011;43656;57.746;11.780;2023-09-08T04:14:52;138.80;;;40.85;;
57826;SDS011;43656;57.746;11.780;2023-09-08T04:17:17;141.20;;;39.33;;
57826;SDS011;43656;57.746;11.780;2023-09-08T04:19:43;107.95;;;37.90;;
57826;SDS011;43656;57.746;11.780;2023-09-08T04:22:08;120.10;;;40.42;;
57826;SDS011;43656;57.746;11.780;2023-09-08T04:24:35;130.32;;;39.05;;
57826;SDS011;43656;57.746;11.780;2023-09-08T04:27:02;131.07;;;39.10;;
57826;SDS011;43656;57.746;11.780;2023-09-08T04:29:28;92.00;;;35.88;;
57826;SDS011;43656;57.746;11.780;2023-09-08T04:31:53;153.88;;;42.60;;
57826;SDS011;43656;57.746;11.780;2023-09-08T04:34:19;98.70;;;36.35;;
57826;SDS011;43656;57.746;11.780;2023-09-08T04:36:44;223.20;;;48.25;;
57826;SDS011;43656;57.746;11.780;2023-09-08T04:39:10;145.07;;;41.08;;
57826;SDS011;43656;57.746;11.780;2023-09-08T04:41:36;88.20;;;36.92;;
57826;SDS011;43656;57.746;11.780;2023-09-08T04:44:02;110.57;;;39.60;;
57826;SDS011;43656;57.746;11.780;2023-09-08T04:46:28;135.02;;;40.78;;
57826;SDS011;43656;57.746;11.780;2023-09-08T04:48:54;134.13;;;42.30;;
57826;SDS011;43656;57.746;11.780;2023-09-08T04:51:20;233.77;;;48.85;;
57826;SDS011;43656;57.746;11.780;2023-09-08T04:56:33;170.05;;;42.55;;
57826;SDS011;43656;57.746;11.780;2023-09-08T04:58:59;127.57;;;37.75;;
57826;SDS011;43656;57.746;11.780;2023-09-08T05:01:26;150.73;;;42.17;;
57826;SDS011;43656;57.746;11.780;2023-09-08T05:03:57;197.77;;;45.17;;
57826;SDS011;43656;57.746;11.780;2023-09-08T05:06:23;209.27;;;45.03;;
57826;SDS011;43656;57.746;11.780;2023-09-08T05:08:48;164.52;;;40.63;;
57826;SDS011;43656;57.746;11.780;2023-09-08T05:11:14;156.10;;;41.40;;
57826;SDS011;43656;57.746;11.780;2023-09-08T05:13:39;166.38;;;41.42;;
57826;SDS011;43656;57.746;11.780;2023-09-08T05:16:05;231.13;;;45.42;;
57826;SDS011;43656;57.746;11.780;2023-09-08T05:18:37;180.52;;;42.50;;
57826;SDS011;43656;57.746;11.780;2023-09-08T05:21:04;195.77;;;42.25;;
57826;SDS011;43656;57.746;11.780;2023-09-08T05:23:29;158.40;;;43.65;;
57826;SDS011;43656;57.746;11.780;2023-09-08T05:25:55;85.75;;;35.42;;
57826;SDS011;43656;57.746;11.780;2023-09-08T05:28:20;206.63;;;42.92;;
57826;SDS011;43656;57.746;11.780;2023-09-08T05:30:46;113.38;;;39.00;;
57826;SDS011;43656;57.746;11.780;2023-09-08T05:33:11;136.02;;;39.35;;
57826;SDS011;43656;57.746;11.780;2023-09-08T05:35:37;105.45;;;37.55;;
57826;SDS011;43656;57.746;11.780;2023-09-08T05:38:03;200.98;;;46.67;;
57826;SDS011;43656;57.746;11.780;2023-09-08T05:40:28;129.13;;;39.47;;
57826;SDS011;43656;57.746;11.780;2023-09-08T05:42:54;154.48;;;41.97;;
57826;SDS011;43656;57.746;11.780;2023-09-08T05:45:19;117.38;;;40.55;;
57826;SDS011;43656;57.746;11.780;2023-09-08T05:47:45;99.82;;;36.83;;
57826;SDS011;43656;57.746;11.780;2023-09-08T05:50:10;120.43;;;40.25;;
57826;SDS011;43656;57.746;11.780;2023-09-08T05:52:36;131.13;;;41.45;;
57826;SDS011;43656;57.746;11.780;2023-09-08T05:55:01;67.28;;;33.85;;
57826;SDS011;43656;57.746;11.780;2023-09-08T05:57:27;93.05;;;37.67;;
57826;SDS011;43656;57.746;11.780;2023-09-08T05:59:52;107.80;;;42.60;;
57826;SDS011;43656;57.746;11.780;2023-09-08T06:02:17;107.88;;;40.50;;
57826;SDS011;43656;57.746;11.780;2023-09-08T06:04:44;80.75;;;37.50;;
57826;SDS011;43656;57.746;11.780;2023-09-08T06:07:10;67.68;;;34.10;;
57826;SDS011;43656;57.746;11.780;2023-09-08T06:09:35;105.30;;;39.97;;
57826;SDS011;43656;57.746;11.780;2023-09-08T06:12:01;73.32;;;35.22;;
57826;SDS011;43656;57.746;11.780;2023-09-08T06:14:26;71.72;;;35.08;;
57826;SDS011;43656;57.746;11.780;2023-09-08T06:16:51;53.33;;;31.90;;
57826;SDS011;43656;57.746;11.780;2023-09-08T06:19:17;62.00;;;32.60;;
57826;SDS011;43656;57.746;11.780;2023-09-08T06:21:42;65.60;;;34.08;;
57826;SDS011;43656;57.746;11.780;2023-09-08T06:24:08;66.45;;;34.67;;
57826;SDS011;43656;57.746;11.780;2023-09-08T06:26:33;57.13;;;32.03;;
57826;SDS011;43656;57.746;11.780;2023-09-08T06:28:59;51.55;;;30.48;;
57826;SDS011;43656;57.746;11.780;2023-09-08T06:31:24;50.30;;;29.95;;
57826;SDS011;43656;57.746;11.780;2023-09-08T06:33:49;51.90;;;29.60;;
57826;SDS011;43656;57.746;11.780;2023-09-08T06:36:17;57.28;;;31.20;;
57826;SDS011;43656;57.746;11.780;2023-09-08T06:38:43;57.45;;;32.10;;
57826;SDS011;43656;57.746;11.780;2023-09-08T06:41:09;46.33;;;28.88;;
57826;SDS011;43656;57.746;11.780;2023-09-08T06:43:35;45.72;;;27.83;;
57826;SDS011;43656;57.746;11.780;2023-09-08T06:46:01;41.95;;;27.88;;
57826;SDS011;43656;57.746;11.780;2023-09-08T06:48:27;44.15;;;27.98;;
57826;SDS011;43656;57.746;11.780;2023-09-08T06:50:53;45.75;;;28.77;;
57826;SDS011;43656;57.746;11.780;2023-09-08T06:53:19;49.30;;;29.63;;
57826;SDS011;43656;57.746;11.780;2023-09-08T06:55:44;51.67;;;29.67;;
57826;SDS011;43656;57.746;11.780;2023-09-08T06:58:10;44.72;;;28.38;;
57826;SDS011;43656;57.746;11.780;2023-09-08T07:00:35;41.50;;;28.30;;
57826;SDS011;43656;57.746;11.780;2023-09-08T07:03:01;44.05;;;28.25;;
57826;SDS011;43656;57.746;11.780;2023-09-08T07:05:27;39.30;;;26.75;;
57826;SDS011;43656;57.746;11.780;2023-09-08T07:07:52;38.38;;;25.52;;
57826;SDS011;43656;57.746;11.780;2023-09-08T07:10:19;40.65;;;26.55;;
57826;SDS011;43656;57.746;11.780;2023-09-08T07:12:45;33.33;;;24.00;;
57826;SDS011;43656;57.746;11.780;2023-09-08T07:15:10;35.92;;;24.98;;
57826;SDS011;43656;57.746;11.780;2023-09-08T07:17:35;36.17;;;24.38;;
57826;SDS011;43656;57.746;11.780;2023-09-08T07:20:01;33.83;;;24.15;;
57826;SDS011;43656;57.746;11.780;2023-09-08T07:22:28;29.52;;;21.48;;
57826;SDS011;43656;57.746;11.780;2023-09-08T07:24:53;47.65;;;25.05;;
57826;SDS011;43656;57.746;11.780;2023-09-08T07:27:19;40.97;;;25.77;;
57826;SDS011;43656;57.746;11.780;2023-09-08T07:29:45;40.83;;;24.67;;
57826;SDS011;43656;57.746;11.780;2023-09-08T07:32:13;29.23;;;21.80;;
57826;SDS011;43656;57.746;11.780;2023-09-08T07:34:38;33.55;;;20.20;;
57826;SDS011;43656;57.746;11.780;2023-09-08T07:37:05;27.48;;;18.05;;
57826;SDS011;43656;57.746;11.780;2023-09-08T07:39:30;23.92;;;18.20;;
57826;SDS011;43656;57.746;11.780;2023-09-08T07:41:57;27.83;;;18.60;;
57826;SDS011;43656;57.746;11.780;2023-09-08T07:44:24;25.30;;;18.17;;
57826;SDS011;43656;57.746;11.780;2023-09-08T07:46:49;23.83;;;18.38;;
57826;SDS011;43656;57.746;11.780;2023-09-08T07:49:16;27.50;;;17.58;;
57826;SDS011;43656;57.746;11.780;2023-09-08T07:51:45;25.80;;;19.05;;
57826;SDS011;43656;57.746;11.780;2023-09-08T07:54:12;31.95;;;19.98;;
57826;SDS011;43656;57.746;11.780;2023-09-08T07:56:38;25.17;;;18.58;;
57826;SDS011;43656;57.746;11.780;2023-09-08T07:59:06;31.42;;;18.83;;
57826;SDS011;43656;57.746;11.780;2023-09-08T08:01:32;27.55;;;18.83;;
57826;SDS011;43656;57.746;11.780;2023-09-08T08:03:57;22.05;;;17.42;;
57826;SDS011;43656;57.746;11.780;2023-09-08T08:06:23;23.40;;;17.67;;
57826;SDS011;43656;57.746;11.780;2023-09-08T08:08:49;23.33;;;17.30;;
57826;SDS011;43656;57.746;11.780;2023-09-08T08:11:15;23.27;;;17.30;;
57826;SDS011;43656;57.746;11.780;2023-09-08T08:13:48;20.73;;;17.30;;
57826;SDS011;43656;57.746;11.780;2023-09-08T08:16:14;19.38;;;16.38;;
57826;SDS011;43656;57.746;11.780;2023-09-08T08:18:39;27.15;;;18.45;;
57826;SDS011;43656;57.746;11.780;2023-09-08T08:21:04;26.17;;;18.88;;
57826;SDS011;43656;57.746;11.780;2023-09-08T08:23:30;18.88;;;15.80;;
57826;SDS011;43656;57.746;11.780;2023-09-08T08:25:56;26.92;;;18.58;;
57826;SDS011;43656;57.746;11.780;2023-09-08T08:28:22;28.63;;;18.73;;
57826;SDS011;43656;57.746;11.780;2023-09-08T08:30:49;24.17;;;17.95;;
57826;SDS011;43656;57.746;11.780;2023-09-08T08:33:15;20.25;;;16.35;;
57826;SDS011;43656;57.746;11.780;2023-09-08T08:35:40;21.73;;;17.15;;
57826;SDS011;43656;57.746;11.780;2023-09-08T08:38:06;21.83;;;17.13;;
57826;SDS011;43656;57.746;11.780;2023-09-08T08:40:31;23.35;;;17.17;;
57826;SDS011;43656;57.746;11.780;2023-09-08T08:42:59;15.98;;;13.38;;
57826;SDS011;43656;57.746;11.780;2023-09-08T08:45:25;14.73;;;12.48;;
57826;SDS011;43656;57.746;11.780;2023-09-08T08:47:52;15.52;;;12.70;;
57826;SDS011;43656;57.746;11.780;2023-09-08T08:50:18;14.57;;;12.95;;
57826;SDS011;43656;57.746;11.780;2023-09-08T08:52:45;14.75;;;13.18;;
57826;SDS011;43656;57.746;11.780;2023-09-08T08:55:12;16.40;;;13.20;;
57826;SDS011;43656;57.746;11.780;2023-09-08T08:57:40;17.23;;;14.00;;
57826;SDS011;43656;57.746;11.780;2023-09-08T09:00:07;17.60;;;13.05;;
57826;SDS011;43656;57.746;11.780;2023-09-08T09:02:39;14.43;;;12.27;;
57826;SDS011;43656;57.746;11.780;2023-09-08T09:05:09;12.38;;;11.07;;
57826;SDS011;43656;57.746;11.780;2023-09-08T09:07:37;14.90;;;12.10;;
57826;SDS011;43656;57.746;11.780;2023-09-08T09:10:04;12.38;;;10.90;;
57826;SDS011;43656;57.746;11.780;2023-09-08T09:12:31;11.45;;;10.10;;
57826;SDS011;43656;57.746;11.780;2023-09-08T09:14:58;11.52;;;9.75;;
57826;SDS011;43656;57.746;11.780;2023-09-08T09:17:24;13.60;;;10.75;;
57826;SDS011;43656;57.746;11.780;2023-09-08T09:19:50;12.65;;;10.57;;
57826;SDS011;43656;57.746;11.780;2023-09-08T09:22:19;11.73;;;9.27;;
57826;SDS011;43656;57.746;11.780;2023-09-08T09:24:46;10.15;;;9.15;;
57826;SDS011;43656;57.746;11.780;2023-09-08T09:27:12;11.77;;;8.60;;
57826;SDS011;43656;57.746;11.780;2023-09-08T09:29:45;9.10;;;8.20;;
57826;SDS011;43656;57.746;11.780;2023-09-08T09:32:12;10.95;;;8.95;;
57826;SDS011;43656;57.746;11.780;2023-09-08T09:34:48;10.23;;;7.90;;
57826;SDS011;43656;57.746;11.780;2023-09-08T09:37:15;13.77;;;9.07;;
57826;SDS011;43656;57.746;11.780;2023-09-08T09:39:41;9.80;;;8.25;;
57826;SDS011;43656;57.746;11.780;2023-09-08T09:42:06;9.57;;;7.90;;
57826;SDS011;43656;57.746;11.780;2023-09-08T09:44:32;8.60;;;7.70;;
57826;SDS011;43656;57.746;11.780;2023-09-08T09:46:57;8.02;;;7.00;;
57826;SDS011;43656;57.746;11.780;2023-09-08T09:49:25;10.82;;;6.72;;
57826;SDS011;43656;57.746;11.780;2023-09-08T09:51:56;8.98;;;6.60;;
57826;SDS011;43656;57.746;11.780;2023-09-08T09:54:23;8.75;;;6.30;;
57826;SDS011;43656;57.746;11.780;2023-09-08T09:56:49;7.90;;;5.97;;
57826;SDS011;43656;57.746;11.780;2023-09-08T09:59:18;6.82;;;5.90;;
57826;SDS011;43656;57.746;11.780;2023-09-08T10:01:43;7.57;;;5.80;;
57826;SDS011;43656;57.746;11.780;2023-09-08T10:04:09;6.93;;;5.70;;
57826;SDS011;43656;57.746;11.780;2023-09-08T10:06:36;8.60;;;5.80;;
57826;SDS011;43656;57.746;11.780;2023-09-08T10:09:03;6.18;;;5.35;;
57826;SDS011;43656;57.746;11.780;2023-09-08T10:11:44;5.97;;;5.30;;
57826;SDS011;43656;57.746;11.780;2023-09-08T10:14:14;8.30;;;5.30;;
57826;SDS011;43656;57.746;11.780;2023-09-08T10:16:40;9.90;;;5.07;;
57826;SDS011;43656;57.746;11.780;2023-09-08T10:19:10;7.40;;;5.35;;
57826;SDS011;43656;57.746;11.780;2023-09-08T10:21:40;7.20;;;5.03;;
57826;SDS011;43656;57.746;11.780;2023-09-08T10:24:24;9.73;;;5.38;;
57826;SDS011;43656;57.746;11.780;2023-09-08T10:26:51;8.65;;;5.03;;
57826;SDS011;43656;57.746;11.780;2023-09-08T10:29:33;6.85;;;5.03;;
57826;SDS011;43656;57.746;11.780;2023-09-08T10:32:00;7.57;;;5.00;;
57826;SDS011;43656;57.746;11.780;2023-09-08T10:34:27;6.95;;;5.13;;
57826;SDS011;43656;57.746;11.780;2023-09-08T10:36:54;7.00;;;4.72;;
57826;SDS011;43656;57.746;11.780;2023-09-08T10:47:18;6.78;;;4.53;;
57826;SDS011;43656;57.746;11.780;2023-09-08T10:49:47;6.82;;;4.85;;
57826;SDS011;43656;57.746;11.780;2023-09-08T10:52:13;8.23;;;5.05;;
57826;SDS011;43656;57.746;11.780;2023-09-08T10:54:41;5.70;;;4.53;;
57826;SDS011;43656;57.746;11.780;2023-09-08T10:57:13;7.75;;;5.22;;
57826;SDS011;43656;57.746;11.780;2023-09-08T10:59:42;10.68;;;4.93;;
57826;SDS011;43656;57.746;11.780;2023-09-08T11:07:40;10.85;;;5.40;;
57826;SDS011;43656;57.746;11.780;2023-09-08T11:10:06;7.07;;;4.97;;
57826;SDS011;43656;57.746;11.780;2023-09-08T11:12:32;6.20;;;4.47;;
57826;SDS011;43656;57.746;11.780;2023-09-08T11:14:59;7.35;;;4.70;;
57826;SDS011;43656;57.746;11.780;2023-09-08T11:17:28;7.55;;;4.90;;
57826;SDS011;43656;57.746;11.780;2023-09-08T11:19:54;7.78;;;5.10;;
57826;SDS011;43656;57.746;11.780;2023-09-08T11:22:21;7.75;;;4.60;;
57826;SDS011;43656;57.746;11.780;2023-09-08T11:24:52;7.28;;;4.22;;
57826;SDS011;43656;57.746;11.780;2023-09-08T11:27:18;6.60;;;4.15;;
57826;SDS011;43656;57.746;11.780;2023-09-08T11:29:45;7.07;;;4.03;;
57826;SDS011;43656;57.746;11.780;2023-09-08T11:32:11;5.40;;;4.00;;
57826;SDS011;43656;57.746;11.780;2023-09-08T11:34:37;5.53;;;3.15;;
57826;SDS011;43656;57.746;11.780;2023-09-08T11:37:10;5.05;;;3.53;;
57826;SDS011;43656;57.746;11.780;2023-09-08T11:39:41;5.60;;;3.90;;
57826;SDS011;43656;57.746;11.780;2023-09-08T11:42:07;8.25;;;5.32;;
57826;SDS011;43656;57.746;11.780;2023-09-08T11:44:35;12.43;;;6.13;;
57826;SDS011;43656;57.746;11.780;2023-09-08T11:47:02;7.90;;;6.18;;
57826;SDS011;43656;57.746;11.780;2023-09-08T11:52:01;10.02;;;5.70;;
57826;SDS011;43656;57.746;11.780;2023-09-08T11:54:27;10.45;;;6.22;;
57826;SDS011;43656;57.746;11.780;2023-09-08T11:56:53;9.27;;;6.53;;
57826;SDS011;43656;57.746;11.780;2023-09-08T11:59:20;7.40;;;6.10;;
57826;SDS011;43656;57.746;11.780;2023-09-08T12:01:45;11.70;;;7.40;;
57826;SDS011;43656;57.746;11.780;2023-09-08T12:04:20;10.65;;;7.38;;
57826;SDS011;43656;57.746;11.780;2023-09-08T12:06:46;11.77;;;8.43;;
57826;SDS011;43656;57.746;11.780;2023-09-08T12:09:13;11.73;;;9.77;;
57826;SDS011;43656;57.746;11.780;2023-09-08T12:11:39;9.75;;;8.77;;
57826;SDS011;43656;57.746;11.780;2023-09-08T12:14:08;10.98;;;9.52;;
57826;SDS011;43656;57.746;11.780;2023-09-08T12:16:36;10.45;;;8.90;;
57826;SDS011;43656;57.746;11.780;2023-09-08T12:19:01;9.60;;;8.50;;
57826;SDS011;43656;57.746;11.780;2023-09-08T12:21:27;8.75;;;7.85;;
57826;SDS011;43656;57.746;11.780;2023-09-08T12:23:53;11.85;;;9.27;;
57826;SDS011;43656;57.746;11.780;2023-09-08T12:26:19;9.93;;;8.93;;
57826;SDS011;43656;57.746;11.780;2023-09-08T12:28:45;10.18;;;9.18;;
57826;SDS011;43656;57.746;11.780;2023-09-08T12:31:15;10.00;;;8.18;;
57826;SDS011;43656;57.746;11.780;2023-09-08T12:33:42;10.25;;;8.15;;
57826;SDS011;43656;57.746;11.780;2023-09-08T12:36:12;9.23;;;8.23;;
57826;SDS011;43656;57.746;11.780;2023-09-08T12:38:39;10.20;;;7.50;;
57826;SDS011;43656;57.746;11.780;2023-09-08T12:41:05;7.80;;;6.88;;
57826;SDS011;43656;57.746;11.780;2023-09-08T12:43:30;8.25;;;7.13;;
57826;SDS011;43656;57.746;11.780;2023-09-08T12:45:57;10.48;;;6.82;;
57826;SDS011;43656;57.746;11.780;2023-09-08T12:48:22;7.85;;;6.60;;
57826;SDS011;43656;57.746;11.780;2023-09-08T12:50:48;8.77;;;6.80;;
57826;SDS011;43656;57.746;11.780;2023-09-08T12:53:14;10.45;;;6.15;;
57826;SDS011;43656;57.746;11.780;2023-09-08T12:55:40;9.40;;;6.43;;
57826;SDS011;43656;57.746;11.780;2023-09-08T12:58:05;8.50;;;6.40;;
57826;SDS011;43656;57.746;11.780;2023-09-08T13:00:31;7.25;;;6.55;;
57826;SDS011;43656;57.746;11.780;2023-09-08T13:02:56;8.52;;;6.50;;
57826;SDS011;43656;57.746;11.780;2023-09-08T13:05:22;7.03;;;6.30;;
57826;SDS011;43656;57.746;11.780;2023-09-08T13:07:47;7.30;;;5.95;;
57826;SDS011;43656;57.746;11.780;2023-09-08T13:10:12;7.10;;;5.65;;
57826;SDS011;43656;57.746;11.780;2023-09-08T13:12:38;7.70;;;5.43;;
57826;SDS011;43656;57.746;11.780;2023-09-08T13:15:03;6.50;;;5.20;;
57826;SDS011;43656;57.746;11.780;2023-09-08T13:17:29;6.28;;;5.68;;
57826;SDS011;43656;57.746;11.780;2023-09-08T13:19:55;9.18;;;6.05;;
57826;SDS011;43656;57.746;11.780;2023-09-08T13:22:20;5.22;;;4.68;;
57826;SDS011;43656;57.746;11.780;2023-09-08T13:24:45;7.53;;;4.25;;
57826;SDS011;43656;57.746;11.780;2023-09-08T13:27:11;5.53;;;3.65;;
57826;SDS011;43656;57.746;11.780;2023-09-08T13:29:36;4.32;;;3.78;;
57826;SDS011;43656;57.746;11.780;2023-09-08T13:32:03;6.97;;;3.80;;
57826;SDS011;43656;57.746;11.780;2023-09-08T13:34:29;6.40;;;3.85;;
57826;SDS011;43656;57.746;11.780;2023-09-08T13:36:55;4.30;;;3.35;;
57826;SDS011;43656;57.746;11.780;2023-09-08T13:39:20;5.25;;;3.40;;
57826;SDS011;43656;57.746;11.780;2023-09-08T13:41:53;5.63;;;3.17;;
57826;SDS011;43656;57.746;11.780;2023-09-08T13:44:21;4.45;;;3.40;;
57826;SDS011;43656;57.746;11.780;2023-09-08T13:46:47;3.90;;;3.30;;
57826;SDS011;43656;57.746;11.780;2023-09-08T13:49:14;4.10;;;3.60;;
57826;SDS011;43656;57.746;11.780;2023-09-08T13:51:40;5.30;;;3.40;;
57826;SDS011;43656;57.746;11.780;2023-09-08T13:54:06;4.05;;;3.45;;
57826;SDS011;43656;57.746;11.780;2023-09-08T13:56:32;4.47;;;3.75;;
57826;SDS011;43656;57.746;11.780;2023-09-08T13:58:58;4.10;;;3.25;;
57826;SDS011;43656;57.746;11.780;2023-09-08T14:01:23;4.68;;;3.40;;
57826;SDS011;43656;57.746;11.780;2023-09-08T14:03:49;4.55;;;3.60;;
57826;SDS011;43656;57.746;11.780;2023-09-08T14:06:17;5.22;;;3.00;;
57826;SDS011;43656;57.746;11.780;2023-09-08T14:08:43;3.75;;;3.30;;
57826;SDS011;43656;57.746;11.780;2023-09-08T14:11:09;4.22;;;3.00;;
57826;SDS011;43656;57.746;11.780;2023-09-08T14:13:35;6.07;;;3.42;;
57826;SDS011;43656;57.746;11.780;2023-09-08T14:16:00;3.50;;;3.20;;
57826;SDS011;43656;57.746;11.780;2023-09-08T14:18:26;5.40;;;3.10;;
57826;SDS011;43656;57.746;11.780;2023-09-08T14:20:51;5.05;;;3.33;;
57826;SDS011;43656;57.746;11.780;2023-09-08T14:23:16;3.88;;;3.10;;
57826;SDS011;43656;57.746;11.780;2023-09-08T14:25:42;6.22;;;3.50;;
57826;SDS011;43656;57.746;11.780;2023-09-08T14:28:08;5.72;;;3.50;;
57826;SDS011;43656;57.746;11.780;2023-09-08T14:30:34;5.57;;;3.10;;
57826;SDS011;43656;57.746;11.780;2023-09-08T14:33:00;5.47;;;3.30;;
57826;SDS011;43656;57.746;11.780;2023-09-08T14:35:25;4.38;;;3.13;;